sensor_id;sensor_type;location;lat;lon;timestamp;pressure;altitude;pressure_sealevel;temperature;humidity
22481;BME280;11407;56.964;-2.212;2022-10-31T00:01:32;100616.66;;;20.26;50.17
22481;BME280;11407;56.964;-2.212;2022-10-31T00:03:58;100615.44;;;20.14;49.99
22481;BME280;11407;56.964;-2.212;2022-10-31T00:06:23;100621.53;;;20.08;50.04
22481;BME280;11407;56.964;-2.212;2022-10-31T00:08:57;100622.09;;;20.18;49.92
22481;BME280;11407;56.964;-2.212;2022-10-31T00:11:24;100622.00;;;20.11;50.10
22481;BME280;11407;56.964;-2.212;2022-10-31T00:13:49;100631.69;;;20.12;49.87
22481;BME280;11407;56.964;-2.212;2022-10-31T00:16:16;100632.34;;;20.14;50.16
22481;BME280;11407;56.964;-2.212;2022-10-31T00:18:42;100642.38;;;20.12;49.71
22481;BME280;11407;56.964;-2.212;2022-10-31T00:21:07;100640.06;;;20.09;49.33
22481;BME280;11407;56.964;-2.212;2022-10-31T00:23:33;100647.69;;;19.98;49.95
22481;BME280;11407;56.964;-2.212;2022-10-31T00:26:02;100640.38;;;20.14;49.57
22481;BME280;11407;56.964;-2.212;2022-10-31T00:28:29;100646.19;;;20.18;49.53
22481;BME280;11407;56.964;-2.212;2022-10-31T00:31:07;100648.63;;;20.27;49.20
22481;BME280;11407;56.964;-2.212;2022-10-31T00:33:34;100656.25;;;20.16;49.62
22481;BME280;11407;56.964;-2.212;2022-10-31T00:36:02;100657.38;;;19.99;49.50
22481;BME280;11407;56.964;-2.212;2022-10-31T00:38:27;100660.22;;;19.98;49.46
22481;BME280;11407;56.964;-2.212;2022-10-31T00:40:53;100664.47;;;19.84;49.98
22481;BME280;11407;56.964;-2.212;2022-10-31T00:43:18;100676.38;;;19.82;49.72
22481;BME280;11407;56.964;-2.212;2022-10-31T00:45:44;100675.38;;;19.75;49.59
22481;BME280;11407;56.964;-2.212;2022-10-31T00:48:09;100671.22;;;19.72;49.60
22481;BME280;11407;56.964;-2.212;2022-10-31T00:50:35;100679.72;;;19.76;49.67
22481;BME280;11407;56.964;-2.212;2022-10-31T00:53:00;100674.63;;;19.66;49.29
22481;BME280;11407;56.964;-2.212;2022-10-31T00:55:26;100677.16;;;19.60;49.34
22481;BME280;11407;56.964;-2.212;2022-10-31T00:57:51;100678.97;;;19.59;49.75
22481;BME280;11407;56.964;-2.212;2022-10-31T01:00:17;100677.34;;;19.50;49.69
22481;BME280;11407;56.964;-2.212;2022-10-31T01:02:42;100679.03;;;19.51;49.84
22481;BME280;11407;56.964;-2.212;2022-10-31T01:05:08;100678.38;;;19.49;49.96
22481;BME280;11407;56.964;-2.212;2022-10-31T01:07:38;100680.69;;;19.52;49.95
22481;BME280;11407;56.964;-2.212;2022-10-31T01:10:05;100679.38;;;19.48;50.43
22481;BME280;11407;56.964;-2.212;2022-10-31T01:12:39;100681.84;;;19.58;50.39
22481;BME280;11407;56.964;-2.212;2022-10-31T01:15:05;100672.50;;;19.54;50.42
22481;BME280;11407;56.964;-2.212;2022-10-31T01:17:31;100672.50;;;19.54;50.27
22481;BME280;11407;56.964;-2.212;2022-10-31T01:19:56;100680.69;;;19.52;50.34
22481;BME280;11407;56.964;-2.212;2022-10-31T01:22:22;100684.00;;;19.62;49.81
22481;BME280;11407;56.964;-2.212;2022-10-31T01:24:47;100683.66;;;19.65;49.55
22481;BME280;11407;56.964;-2.212;2022-10-31T01:27:12;100683.38;;;19.52;49.99
22481;BME280;11407;56.964;-2.212;2022-10-31T01:29:38;100687.72;;;19.53;49.92
22481;BME280;11407;56.964;-2.212;2022-10-31T01:32:03;100687.19;;;19.58;49.73
22481;BME280;11407;56.964;-2.212;2022-10-31T01:34:29;100692.53;;;19.58;49.68
22481;BME280;11407;56.964;-2.212;2022-10-31T01:36:54;100696.22;;;19.57;50.14
22481;BME280;11407;56.964;-2.212;2022-10-31T01:39:20;100705.56;;;19.53;50.32
22481;BME280;11407;56.964;-2.212;2022-10-31T01:41:48;100701.91;;;19.54;50.87
22481;BME280;11407;56.964;-2.212;2022-10-31T01:46:43;100700.44;;;19.82;50.55
22481;BME280;11407;56.964;-2.212;2022-10-31T01:54:35;100693.13;;;20.06;50.24
22481;BME280;11407;56.964;-2.212;2022-10-31T01:57:02;100686.41;;;20.10;50.10
22481;BME280;11407;56.964;-2.212;2022-10-31T01:59:32;100683.38;;;20.13;50.06
22481;BME280;11407;56.964;-2.212;2022-10-31T02:02:01;100678.06;;;20.05;49.95
22481;BME280;11407;56.964;-2.212;2022-10-31T02:04:27;100680.59;;;20.06;50.10
22481;BME280;11407;56.964;-2.212;2022-10-31T02:07:03;100679.06;;;20.04;49.92
22481;BME280;11407;56.964;-2.212;2022-10-31T02:09:30;100673.09;;;19.94;50.18
22481;BME280;11407;56.964;-2.212;2022-10-31T02:11:58;100679.31;;;19.87;50.01
22481;BME280;11407;56.964;-2.212;2022-10-31T02:14:26;100665.25;;;19.93;49.72
22481;BME280;11407;56.964;-2.212;2022-10-31T02:16:56;100668.25;;;19.98;49.83
22481;BME280;11407;56.964;-2.212;2022-10-31T02:22:02;100669.38;;;20.03;50.26
22481;BME280;11407;56.964;-2.212;2022-10-31T02:30:23;100663.88;;;20.04;51.03
22481;BME280;11407;56.964;-2.212;2022-10-31T02:33:07;100675.81;;;20.16;50.84
22481;BME280;11407;56.964;-2.212;2022-10-31T02:41:14;100668.28;;;20.57;50.28
22481;BME280;11407;56.964;-2.212;2022-10-31T02:43:48;100660.72;;;20.60;50.35
22481;BME280;11407;56.964;-2.212;2022-10-31T02:46:26;100654.00;;;20.64;50.52
22481;BME280;11407;56.964;-2.212;2022-10-31T02:48:58;100661.38;;;20.77;50.45
22481;BME280;11407;56.964;-2.212;2022-10-31T02:51:28;100652.91;;;20.73;50.58
22481;BME280;11407;56.964;-2.212;2022-10-31T02:53:53;100664.41;;;20.82;50.37
22481;BME280;11407;56.964;-2.212;2022-10-31T02:56:19;100648.13;;;20.83;49.99
22481;BME280;11407;56.964;-2.212;2022-10-31T02:58:57;100655.72;;;20.94;50.19
22481;BME280;11407;56.964;-2.212;2022-10-31T03:01:39;100655.16;;;20.84;50.55
22481;BME280;11407;56.964;-2.212;2022-10-31T03:11:53;100653.50;;;20.97;50.39
22481;BME280;11407;56.964;-2.212;2022-10-31T03:15:04;100675.47;;;21.07;50.01
22481;BME280;11407;56.964;-2.212;2022-10-31T03:17:39;100678.81;;;20.95;50.31
22481;BME280;11407;56.964;-2.212;2022-10-31T03:20:10;100677.91;;;20.88;50.38
22481;BME280;11407;56.964;-2.212;2022-10-31T03:22:37;100680.38;;;21.04;49.75
22481;BME280;11407;56.964;-2.212;2022-10-31T03:25:05;100675.88;;;21.04;49.98
22481;BME280;11407;56.964;-2.212;2022-10-31T03:27:33;100674.56;;;21.00;50.20
22481;BME280;11407;56.964;-2.212;2022-10-31T03:30:03;100673.56;;;21.01;50.35
22481;BME280;11407;56.964;-2.212;2022-10-31T03:32:34;100663.56;;;20.95;50.28
22481;BME280;11407;56.964;-2.212;2022-10-31T03:35:03;100674.75;;;20.99;50.30
22481;BME280;11407;56.964;-2.212;2022-10-31T03:37:32;100686.97;;;21.01;50.32
22481;BME280;11407;56.964;-2.212;2022-10-31T03:40:00;100692.41;;;21.08;49.58
22481;BME280;11407;56.964;-2.212;2022-10-31T03:42:30;100701.75;;;21.12;49.63
22481;BME280;11407;56.964;-2.212;2022-10-31T03:45:00;100695.09;;;21.08;49.63
22481;BME280;11407;56.964;-2.212;2022-10-31T03:47:28;100703.03;;;21.01;49.73
22481;BME280;11407;56.964;-2.212;2022-10-31T03:49:54;100693.88;;;20.96;50.14
22481;BME280;11407;56.964;-2.212;2022-10-31T03:53:01;100690.66;;;20.86;50.20
22481;BME280;11407;56.964;-2.212;2022-10-31T03:55:39;100690.44;;;20.88;50.09
22481;BME280;11407;56.964;-2.212;2022-10-31T03:58:09;100692.38;;;20.79;50.28
22481;BME280;11407;56.964;-2.212;2022-10-31T04:00:40;100695.69;;;20.81;50.18
22481;BME280;11407;56.964;-2.212;2022-10-31T04:03:11;100699.38;;;20.80;50.40
22481;BME280;11407;56.964;-2.212;2022-10-31T04:05:38;100696.97;;;20.71;50.25
22481;BME280;11407;56.964;-2.212;2022-10-31T04:08:09;100690.28;;;20.67;50.15
22481;BME280;11407;56.964;-2.212;2022-10-31T04:10:37;100695.38;;;20.39;50.70
22481;BME280;11407;56.964;-2.212;2022-10-31T04:13:08;100697.06;;;20.40;50.61
22481;BME280;11407;56.964;-2.212;2022-10-31T04:15:36;100691.19;;;20.59;49.97
22481;BME280;11407;56.964;-2.212;2022-10-31T04:18:04;100682.16;;;20.60;49.69
22481;BME280;11407;56.964;-2.212;2022-10-31T04:22:56;100687.75;;;20.51;49.86
22481;BME280;11407;56.964;-2.212;2022-10-31T04:25:22;100691.94;;;20.31;50.15
22481;BME280;11407;56.964;-2.212;2022-10-31T04:27:47;100681.56;;;20.28;50.13
22481;BME280;11407;56.964;-2.212;2022-10-31T04:30:13;100693.34;;;20.19;49.90
22481;BME280;11407;56.964;-2.212;2022-10-31T04:32:38;100696.38;;;20.16;49.93
22481;BME280;11407;56.964;-2.212;2022-10-31T04:35:04;100697.94;;;20.10;50.18
22481;BME280;11407;56.964;-2.212;2022-10-31T04:37:29;100697.03;;;20.18;49.33
22481;BME280;11407;56.964;-2.212;2022-10-31T04:39:54;100704.25;;;20.17;49.71
22481;BME280;11407;56.964;-2.212;2022-10-31T04:42:20;100712.56;;;20.00;50.02
22481;BME280;11407;56.964;-2.212;2022-10-31T04:44:45;100692.34;;;19.90;49.98
22481;BME280;11407;56.964;-2.212;2022-10-31T04:47:11;100687.06;;;19.82;50.24
22481;BME280;11407;56.964;-2.212;2022-10-31T04:49:36;100682.25;;;19.77;50.26
22481;BME280;11407;56.964;-2.212;2022-10-31T04:52:01;100684.25;;;19.75;49.55
22481;BME280;11407;56.964;-2.212;2022-10-31T04:54:27;100683.28;;;19.68;49.77
22481;BME280;11407;56.964;-2.212;2022-10-31T04:56:52;100686.47;;;19.64;49.71
22481;BME280;11407;56.964;-2.212;2022-10-31T04:59:18;100680.09;;;19.42;50.17
22481;BME280;11407;56.964;-2.212;2022-10-31T05:01:43;100687.84;;;19.60;49.82
22481;BME280;11407;56.964;-2.212;2022-10-31T05:04:08;100686.34;;;19.57;49.34
22481;BME280;11407;56.964;-2.212;2022-10-31T05:06:34;100684.19;;;19.53;49.70
22481;BME280;11407;56.964;-2.212;2022-10-31T05:08:59;100696.88;;;19.51;49.88
22481;BME280;11407;56.964;-2.212;2022-10-31T05:11:24;100693.94;;;19.46;50.01
22481;BME280;11407;56.964;-2.212;2022-10-31T05:13:50;100695.59;;;19.47;50.10
22481;BME280;11407;56.964;-2.212;2022-10-31T05:16:15;100692.63;;;19.34;50.08
22481;BME280;11407;56.964;-2.212;2022-10-31T05:18:41;100681.09;;;19.41;50.18
22481;BME280;11407;56.964;-2.212;2022-10-31T05:21:06;100672.41;;;19.39;49.73
22481;BME280;11407;56.964;-2.212;2022-10-31T05:23:31;100674.75;;;19.34;50.11
22481;BME280;11407;56.964;-2.212;2022-10-31T05:25:57;100670.25;;;19.35;49.79
22481;BME280;11407;56.964;-2.212;2022-10-31T05:28:22;100674.75;;;19.34;50.03
22481;BME280;11407;56.964;-2.212;2022-10-31T05:30:47;100677.41;;;19.34;49.48
22481;BME280;11407;56.964;-2.212;2022-10-31T05:33:14;100669.78;;;19.31;50.02
22481;BME280;11407;56.964;-2.212;2022-10-31T05:35:39;100674.94;;;19.33;49.42
22481;BME280;11407;56.964;-2.212;2022-10-31T05:38:05;100663.44;;;19.24;49.92
22481;BME280;11407;56.964;-2.212;2022-10-31T05:40:30;100660.75;;;19.24;49.83
22481;BME280;11407;56.964;-2.212;2022-10-31T05:42:56;100664.28;;;19.25;50.10
22481;BME280;11407;56.964;-2.212;2022-10-31T05:45:23;100669.09;;;19.21;50.02
22481;BME280;11407;56.964;-2.212;2022-10-31T05:47:56;100667.31;;;19.06;50.53
22481;BME280;11407;56.964;-2.212;2022-10-31T05:50:23;100668.81;;;19.08;50.64
22481;BME280;11407;56.964;-2.212;2022-10-31T05:53:15;100653.59;;;19.25;49.89
22481;BME280;11407;56.964;-2.212;2022-10-31T05:55:41;100648.78;;;19.20;49.87
22481;BME280;11407;56.964;-2.212;2022-10-31T05:58:07;100643.44;;;19.20;50.24
22481;BME280;11407;56.964;-2.212;2022-10-31T06:00:33;100643.28;;;19.14;50.22
22481;BME280;11407;56.964;-2.212;2022-10-31T06:03:02;100633.06;;;19.17;50.94
22481;BME280;11407;56.964;-2.212;2022-10-31T06:05:29;100636.56;;;19.26;50.77
22481;BME280;11407;56.964;-2.212;2022-10-31T06:07:55;100632.03;;;19.26;51.29
22481;BME280;11407;56.964;-2.212;2022-10-31T06:10:20;100638.19;;;19.35;51.43
22481;BME280;11407;56.964;-2.212;2022-10-31T06:12:46;100638.44;;;19.48;51.67
22481;BME280;11407;56.964;-2.212;2022-10-31T06:15:12;100635.84;;;19.32;52.74
22481;BME280;11407;56.964;-2.212;2022-10-31T06:17:38;100635.25;;;19.52;52.33
22481;BME280;11407;56.964;-2.212;2022-10-31T06:20:04;100616.00;;;19.79;52.39
22481;BME280;11407;56.964;-2.212;2022-10-31T06:22:29;100625.34;;;19.83;52.43
22481;BME280;11407;56.964;-2.212;2022-10-31T06:24:55;100623.31;;;20.15;52.02
22481;BME280;11407;56.964;-2.212;2022-10-31T06:27:20;100623.88;;;20.25;51.77
22481;BME280;11407;56.964;-2.212;2022-10-31T06:29:47;100619.84;;;20.29;51.68
22481;BME280;11407;56.964;-2.212;2022-10-31T06:32:13;100607.38;;;20.36;51.82
22481;BME280;11407;56.964;-2.212;2022-10-31T06:34:39;100614.88;;;20.41;51.49
22481;BME280;11407;56.964;-2.212;2022-10-31T06:37:06;100612.03;;;20.42;51.63
22481;BME280;11407;56.964;-2.212;2022-10-31T06:39:32;100611.38;;;20.40;51.32
22481;BME280;11407;56.964;-2.212;2022-10-31T06:41:58;100604.25;;;20.47;51.49
22481;BME280;11407;56.964;-2.212;2022-10-31T06:44:23;100605.56;;;20.51;51.52
22481;BME280;11407;56.964;-2.212;2022-10-31T06:46:49;100606.84;;;20.55;51.17
22481;BME280;11407;56.964;-2.212;2022-10-31T06:49:14;100604.13;;;20.63;51.33
22481;BME280;11407;56.964;-2.212;2022-10-31T06:51:39;100604.00;;;20.57;51.91
22481;BME280;11407;56.964;-2.212;2022-10-31T06:54:05;100616.75;;;20.69;51.40
22481;BME280;11407;56.964;-2.212;2022-10-31T06:56:30;100622.41;;;20.74;51.36
22481;BME280;11407;56.964;-2.212;2022-10-31T06:58:56;100615.16;;;20.83;51.29
22481;BME280;11407;56.964;-2.212;2022-10-31T07:01:21;100587.81;;;20.87;51.55
22481;BME280;11407;56.964;-2.212;2022-10-31T07:03:46;100604.06;;;20.86;51.55
22481;BME280;11407;56.964;-2.212;2022-10-31T07:06:12;100600.69;;;20.69;52.25
22481;BME280;11407;56.964;-2.212;2022-10-31T07:08:37;100608.50;;;20.79;51.92
22481;BME280;11407;56.964;-2.212;2022-10-31T07:11:03;100607.38;;;20.88;51.33
22481;BME280;11407;56.964;-2.212;2022-10-31T07:13:28;100610.50;;;20.91;51.41
22481;BME280;11407;56.964;-2.212;2022-10-31T07:15:55;100614.13;;;20.98;51.19
22481;BME280;11407;56.964;-2.212;2022-10-31T07:18:24;100606.00;;;20.92;50.96
22481;BME280;11407;56.964;-2.212;2022-10-31T07:20:49;100608.13;;;20.82;51.22
22481;BME280;11407;56.964;-2.212;2022-10-31T07:23:14;100609.97;;;20.81;51.47
22481;BME280;11407;56.964;-2.212;2022-10-31T07:25:40;100599.88;;;20.97;51.00
22481;BME280;11407;56.964;-2.212;2022-10-31T07:28:06;100598.88;;;20.98;50.85
22481;BME280;11407;56.964;-2.212;2022-10-31T07:30:32;100610.44;;;20.99;51.06
22481;BME280;11407;56.964;-2.212;2022-10-31T07:32:58;100606.38;;;20.89;51.16
22481;BME280;11407;56.964;-2.212;2022-10-31T07:35:27;100620.97;;;20.86;51.57
22481;BME280;11407;56.964;-2.212;2022-10-31T07:37:54;100626.59;;;20.91;51.40
22481;BME280;11407;56.964;-2.212;2022-10-31T07:40:20;100635.03;;;20.88;51.45
22481;BME280;11407;56.964;-2.212;2022-10-31T07:42:49;100631.78;;;20.92;51.50
22481;BME280;11407;56.964;-2.212;2022-10-31T07:45:20;100637.41;;;20.97;51.36
22481;BME280;11407;56.964;-2.212;2022-10-31T07:47:47;100638.25;;;20.98;51.53
22481;BME280;11407;56.964;-2.212;2022-10-31T07:50:16;100642.41;;;21.00;51.39
22481;BME280;11407;56.964;-2.212;2022-10-31T07:52:41;100640.53;;;21.01;51.63
22481;BME280;11407;56.964;-2.212;2022-10-31T07:55:07;100645.75;;;21.02;51.60
22481;BME280;11407;56.964;-2.212;2022-10-31T07:57:33;100662.09;;;21.07;51.43
22481;BME280;11407;56.964;-2.212;2022-10-31T07:59:58;100658.13;;;21.18;51.17
22481;BME280;11407;56.964;-2.212;2022-10-31T08:02:24;100654.31;;;21.27;51.23
22481;BME280;11407;56.964;-2.212;2022-10-31T08:04:50;100653.59;;;21.33;50.89
22481;BME280;11407;56.964;-2.212;2022-10-31T08:07:16;100659.69;;;21.27;51.64
22481;BME280;11407;56.964;-2.212;2022-10-31T08:09:41;100653.50;;;21.26;51.31
22481;BME280;11407;56.964;-2.212;2022-10-31T08:12:07;100664.22;;;21.26;51.53
22481;BME280;11407;56.964;-2.212;2022-10-31T08:14:32;100661.63;;;21.33;51.35
22481;BME280;11407;56.964;-2.212;2022-10-31T08:16:57;100665.78;;;21.35;51.30
22481;BME280;11407;56.964;-2.212;2022-10-31T08:19:23;100669.84;;;21.46;51.21
22481;BME280;11407;56.964;-2.212;2022-10-31T08:21:52;100677.34;;;21.65;51.05
22481;BME280;11407;56.964;-2.212;2022-10-31T08:24:20;100679.94;;;21.58;51.42
22481;BME280;11407;56.964;-2.212;2022-10-31T08:26:46;100666.53;;;21.58;51.49
22481;BME280;11407;56.964;-2.212;2022-10-31T08:29:12;100661.88;;;21.67;51.27
22481;BME280;11407;56.964;-2.212;2022-10-31T08:31:39;100654.84;;;21.66;51.25
22481;BME280;11407;56.964;-2.212;2022-10-31T08:34:04;100674.34;;;21.74;51.31
22481;BME280;11407;56.964;-2.212;2022-10-31T08:36:29;100675.19;;;21.75;51.10
22481;BME280;11407;56.964;-2.212;2022-10-31T08:38:55;100684.25;;;21.74;51.14
22481;BME280;11407;56.964;-2.212;2022-10-31T08:41:21;100670.47;;;21.48;52.36
22481;BME280;11407;56.964;-2.212;2022-10-31T08:43:46;100676.88;;;21.47;52.09
22481;BME280;11407;56.964;-2.212;2022-10-31T08:46:12;100677.22;;;21.73;51.57
22481;BME280;11407;56.964;-2.212;2022-10-31T08:48:37;100678.84;;;21.88;51.33
22481;BME280;11407;56.964;-2.212;2022-10-31T08:51:03;100692.59;;;21.99;50.90
22481;BME280;11407;56.964;-2.212;2022-10-31T08:53:29;100687.69;;;22.03;50.96
22481;BME280;11407;56.964;-2.212;2022-10-31T08:55:55;100683.22;;;22.10;50.89
22481;BME280;11407;56.964;-2.212;2022-10-31T08:58:22;100702.41;;;22.07;50.69
22481;BME280;11407;56.964;-2.212;2022-10-31T09:00:49;100699.13;;;22.11;50.82
22481;BME280;11407;56.964;-2.212;2022-10-31T09:03:22;100688.03;;;22.14;50.66
22481;BME280;11407;56.964;-2.212;2022-10-31T09:05:48;100694.22;;;22.15;50.66
22481;BME280;11407;56.964;-2.212;2022-10-31T09:08:14;100693.91;;;22.24;50.53
22481;BME280;11407;56.964;-2.212;2022-10-31T09:10:40;100688.91;;;22.21;50.71
22481;BME280;11407;56.964;-2.212;2022-10-31T09:13:10;100692.31;;;22.30;50.84
22481;BME280;11407;56.964;-2.212;2022-10-31T09:15:38;100694.72;;;22.39;50.93
22481;BME280;11407;56.964;-2.212;2022-10-31T09:18:05;100672.81;;;22.42;50.71
22481;BME280;11407;56.964;-2.212;2022-10-31T09:20:32;100667.28;;;22.44;51.02
22481;BME280;11407;56.964;-2.212;2022-10-31T09:23:03;100677.31;;;22.35;51.51
22481;BME280;11407;56.964;-2.212;2022-10-31T09:25:29;100680.34;;;22.53;50.88
22481;BME280;11407;56.964;-2.212;2022-10-31T09:27:59;100677.78;;;22.66;50.86
22481;BME280;11407;56.964;-2.212;2022-10-31T09:30:27;100679.22;;;22.62;50.96
22481;BME280;11407;56.964;-2.212;2022-10-31T09:33:00;100665.13;;;22.60;51.13
22481;BME280;11407;56.964;-2.212;2022-10-31T09:35:26;100670.56;;;22.46;51.13
22481;BME280;11407;56.964;-2.212;2022-10-31T09:37:59;100671.94;;;22.35;51.93
22481;BME280;11407;56.964;-2.212;2022-10-31T09:40:46;100659.69;;;22.54;51.21
22481;BME280;11407;56.964;-2.212;2022-10-31T09:51:43;100664.50;;;22.85;50.68
22481;BME280;11407;56.964;-2.212;2022-10-31T09:54:15;100674.25;;;22.93;50.38
22481;BME280;11407;56.964;-2.212;2022-10-31T09:56:42;100670.84;;;22.78;50.56
22481;BME280;11407;56.964;-2.212;2022-10-31T09:59:19;100674.47;;;22.91;50.09
22481;BME280;11407;56.964;-2.212;2022-10-31T10:02:10;100682.31;;;22.93;50.11
22481;BME280;11407;56.964;-2.212;2022-10-31T10:04:55;100686.31;;;23.03;50.21
22481;BME280;11407;56.964;-2.212;2022-10-31T10:07:40;100684.22;;;22.99;50.62
22481;BME280;11407;56.964;-2.212;2022-10-31T10:16:24;100683.00;;;23.29;50.32
22481;BME280;11407;56.964;-2.212;2022-10-31T10:26:22;100682.91;;;23.50;49.77
22481;BME280;11407;56.964;-2.212;2022-10-31T10:31:55;100673.34;;;23.41;50.32
22481;BME280;11407;56.964;-2.212;2022-10-31T10:34:28;100679.59;;;23.54;49.82
22481;BME280;11407;56.964;-2.212;2022-10-31T10:37:02;100677.59;;;23.69;50.05
22481;BME280;11407;56.964;-2.212;2022-10-31T10:39:41;100676.84;;;23.81;49.54
22481;BME280;11407;56.964;-2.212;2022-10-31T10:42:13;100669.63;;;23.88;49.68
22481;BME280;11407;56.964;-2.212;2022-10-31T10:44:58;100674.53;;;23.78;50.28
22481;BME280;11407;56.964;-2.212;2022-10-31T10:47:44;100676.88;;;23.94;49.88
22481;BME280;11407;56.964;-2.212;2022-10-31T10:50:20;100665.34;;;24.26;49.37
22481;BME280;11407;56.964;-2.212;2022-10-31T10:55:37;100657.03;;;24.15;49.20
22481;BME280;11407;56.964;-2.212;2022-10-31T10:58:09;100653.34;;;24.22;49.02
22481;BME280;11407;56.964;-2.212;2022-10-31T11:00:41;100659.50;;;24.03;48.95
22481;BME280;11407;56.964;-2.212;2022-10-31T11:03:08;100658.59;;;23.77;50.24
22481;BME280;11407;56.964;-2.212;2022-10-31T11:08:08;100640.25;;;24.19;48.68
22481;BME280;11407;56.964;-2.212;2022-10-31T11:10:34;100636.47;;;23.88;49.58
22481;BME280;11407;56.964;-2.212;2022-10-31T11:16:11;100637.56;;;24.06;48.36
22481;BME280;11407;56.964;-2.212;2022-10-31T11:18:39;100629.66;;;23.85;48.87
22481;BME280;11407;56.964;-2.212;2022-10-31T11:21:05;100630.25;;;23.81;48.93
22481;BME280;11407;56.964;-2.212;2022-10-31T11:23:32;100642.09;;;23.93;48.79
22481;BME280;11407;56.964;-2.212;2022-10-31T11:26:00;100645.84;;;23.98;48.80
22481;BME280;11407;56.964;-2.212;2022-10-31T11:28:27;100632.72;;;23.82;49.34
22481;BME280;11407;56.964;-2.212;2022-10-31T11:31:05;100628.78;;;23.78;49.13
22481;BME280;11407;56.964;-2.212;2022-10-31T11:33:36;100635.84;;;23.86;48.63
22481;BME280;11407;56.964;-2.212;2022-10-31T11:36:18;100633.38;;;23.91;48.22
22481;BME280;11407;56.964;-2.212;2022-10-31T11:38:46;100627.50;;;23.74;48.98
22481;BME280;11407;56.964;-2.212;2022-10-31T11:41:14;100635.22;;;23.90;48.94
22481;BME280;11407;56.964;-2.212;2022-10-31T11:43:48;100632.13;;;23.93;48.35
22481;BME280;11407;56.964;-2.212;2022-10-31T11:46:19;100638.97;;;23.89;48.52
22481;BME280;11407;56.964;-2.212;2022-10-31T11:48:51;100639.38;;;23.86;48.53
22481;BME280;11407;56.964;-2.212;2022-10-31T11:51:21;100628.00;;;23.91;48.70
22481;BME280;11407;56.964;-2.212;2022-10-31T11:53:53;100637.94;;;23.97;49.51
22481;BME280;11407;56.964;-2.212;2022-10-31T11:56:19;100630.31;;;24.20;48.78
22481;BME280;11407;56.964;-2.212;2022-10-31T11:58:58;100634.66;;;24.34;48.54
22481;BME280;11407;56.964;-2.212;2022-10-31T12:01:29;100622.88;;;24.41;48.74
22481;BME280;11407;56.964;-2.212;2022-10-31T12:06:29;100614.59;;;24.56;48.33
22481;BME280;11407;56.964;-2.212;2022-10-31T12:08:56;100619.56;;;24.59;49.11
22481;BME280;11407;56.964;-2.212;2022-10-31T12:11:43;100611.06;;;24.68;49.10
22481;BME280;11407;56.964;-2.212;2022-10-31T12:27:34;100584.25;;;24.92;47.55
22481;BME280;11407;56.964;-2.212;2022-10-31T12:42:10;100585.31;;;24.78;47.08
22481;BME280;11407;56.964;-2.212;2022-10-31T12:49:54;100574.78;;;24.58;47.55
22481;BME280;11407;56.964;-2.212;2022-10-31T12:53:27;100568.97;;;24.41;46.97
22481;BME280;11407;56.964;-2.212;2022-10-31T12:55:59;100569.63;;;24.50;47.34
22481;BME280;11407;56.964;-2.212;2022-10-31T13:01:29;100562.13;;;24.39;47.09
22481;BME280;11407;56.964;-2.212;2022-10-31T13:04:14;100556.97;;;24.24;47.86
22481;BME280;11407;56.964;-2.212;2022-10-31T13:06:48;100562.34;;;24.11;48.06
22481;BME280;11407;56.964;-2.212;2022-10-31T13:09:23;100554.28;;;23.98;47.68
22481;BME280;11407;56.964;-2.212;2022-10-31T13:12:03;100555.94;;;23.99;47.92
22481;BME280;11407;56.964;-2.212;2022-10-31T13:14:35;100551.16;;;23.95;48.15
22481;BME280;11407;56.964;-2.212;2022-10-31T13:17:04;100554.25;;;23.85;48.49
22481;BME280;11407;56.964;-2.212;2022-10-31T13:19:37;100549.28;;;23.95;48.30
22481;BME280;11407;56.964;-2.212;2022-10-31T13:22:09;100552.81;;;23.89;48.58
22481;BME280;11407;56.964;-2.212;2022-10-31T13:24:40;100540.56;;;23.80;48.75
22481;BME280;11407;56.964;-2.212;2022-10-31T13:27:17;100544.94;;;23.94;48.22
22481;BME280;11407;56.964;-2.212;2022-10-31T13:32:22;100534.78;;;24.03;48.08
22481;BME280;11407;56.964;-2.212;2022-10-31T13:34:52;100531.25;;;24.09;48.15
22481;BME280;11407;56.964;-2.212;2022-10-31T13:42:59;100526.94;;;23.95;48.30
22481;BME280;11407;56.964;-2.212;2022-10-31T13:45:27;100509.53;;;23.97;48.54
22481;BME280;11407;56.964;-2.212;2022-10-31T13:48:01;100524.66;;;23.98;47.93
22481;BME280;11407;56.964;-2.212;2022-10-31T13:50:54;100521.53;;;24.08;48.04
22481;BME280;11407;56.964;-2.212;2022-10-31T13:53:22;100518.84;;;23.95;48.66
22481;BME280;11407;56.964;-2.212;2022-10-31T13:55:50;100514.69;;;23.86;48.19
22481;BME280;11407;56.964;-2.212;2022-10-31T13:58:28;100524.00;;;23.83;48.59
22481;BME280;11407;56.964;-2.212;2022-10-31T14:03:37;100508.22;;;23.67;48.27
22481;BME280;11407;56.964;-2.212;2022-10-31T14:06:04;100510.28;;;23.53;48.79
22481;BME280;11407;56.964;-2.212;2022-10-31T14:08:34;100503.66;;;23.49;48.27
22481;BME280;11407;56.964;-2.212;2022-10-31T14:11:00;100509.03;;;23.49;48.54
22481;BME280;11407;56.964;-2.212;2022-10-31T14:13:33;100502.81;;;23.42;49.17
22481;BME280;11407;56.964;-2.212;2022-10-31T14:16:16;100493.91;;;23.48;49.04
22481;BME280;11407;56.964;-2.212;2022-10-31T14:18:48;100492.66;;;23.50;48.64
22481;BME280;11407;56.964;-2.212;2022-10-31T14:23:51;100491.44;;;23.53;48.53
22481;BME280;11407;56.964;-2.212;2022-10-31T14:28:55;100491.19;;;23.35;49.08
22481;BME280;11407;56.964;-2.212;2022-10-31T14:31:42;100494.50;;;23.30;49.06
22481;BME280;11407;56.964;-2.212;2022-10-31T14:50:52;100470.50;;;23.35;49.26
22481;BME280;11407;56.964;-2.212;2022-10-31T14:53:26;100476.69;;;23.29;49.67
22481;BME280;11407;56.964;-2.212;2022-10-31T14:55:54;100478.97;;;23.26;49.62
22481;BME280;11407;56.964;-2.212;2022-10-31T14:58:23;100470.69;;;23.27;49.52
22481;BME280;11407;56.964;-2.212;2022-10-31T15:00:54;100478.78;;;23.34;49.35
22481;BME280;11407;56.964;-2.212;2022-10-31T15:05:58;100464.09;;;23.30;49.23
22481;BME280;11407;56.964;-2.212;2022-10-31T15:08:37;100472.16;;;23.30;49.53